createdAt,value
2022-11-07T00:02:22.023Z,14.00
2022-11-07T00:04:48.630Z,14.00
2022-11-07T00:07:17.449Z,14.00
2022-11-07T00:09:46.908Z,14.10
2022-11-07T00:12:13.579Z,14.10
2022-11-07T00:14:40.249Z,14.10
2022-11-07T00:17:12.014Z,14.10
2022-11-07T00:19:43.280Z,14.10
2022-11-07T00:22:09.970Z,14.10
2022-11-07T00:24:36.598Z,14.10
2022-11-07T00:27:10.712Z,14.00
2022-11-07T00:29:43.524Z,14.00
2022-11-07T00:32:12.653Z,14.00
2022-11-07T00:34:41.552Z,14.00
2022-11-07T00:37:08.224Z,13.90
2022-11-07T00:39:37.476Z,13.90
2022-11-07T00:42:07.168Z,13.90
2022-11-07T00:44:33.808Z,13.80
2022-11-07T00:47:02.695Z,13.80
2022-11-07T00:49:29.349Z,13.80
2022-11-07T00:51:59.743Z,13.70
2022-11-07T00:54:26.360Z,13.70
2022-11-07T00:57:00.088Z,13.70
2022-11-07T00:59:29.122Z,13.70
2022-11-07T01:01:58.212Z,13.60
2022-11-07T01:04:45.948Z,13.60
2022-11-07T01:07:12.554Z,13.60
2022-11-07T01:09:41.135Z,13.60
2022-11-07T01:12:10.332Z,13.50
2022-11-07T01:14:37.111Z,13.50
2022-11-07T01:17:06.923Z,13.50
2022-11-07T01:19:35.994Z,13.50
2022-11-07T01:22:03.080Z,13.40
2022-11-07T01:24:29.788Z,13.40
2022-11-07T01:26:58.787Z,13.40
2022-11-07T01:29:31.364Z,13.40
2022-11-07T01:31:57.960Z,13.40
2022-11-07T01:34:26.488Z,13.40
2022-11-07T01:36:53.686Z,13.40
2022-11-07T01:39:22.244Z,13.40
2022-11-07T01:41:58.610Z,13.40
2022-11-07T01:44:25.320Z,13.40
2022-11-07T01:47:03.139Z,13.30
2022-11-07T01:49:37.702Z,13.30
2022-11-07T01:52:12.845Z,13.40
2022-11-07T01:54:52.792Z,13.40
2022-11-07T01:57:49.865Z,13.40
2022-11-07T02:00:21.143Z,13.40
2022-11-07T02:02:52.980Z,13.40
2022-11-07T02:05:38.746Z,13.30
2022-11-07T02:08:10.637Z,13.40
2022-11-07T02:10:39.624Z,13.40
2022-11-07T02:13:09.216Z,13.40
2022-11-07T02:15:36.847Z,13.40
2022-11-07T02:18:04.260Z,13.40
2022-11-07T02:20:37.891Z,13.40
2022-11-07T02:23:36.067Z,13.40
2022-11-07T02:26:05.445Z,13.40
2022-11-07T02:28:34.356Z,13.50
2022-11-07T02:31:03.880Z,13.50
2022-11-07T02:33:32.684Z,13.50
2022-11-07T02:36:02.159Z,13.50
2022-11-07T02:38:37.237Z,13.50
2022-11-07T02:41:21.711Z,13.50
2022-11-07T02:44:05.397Z,13.50
2022-11-07T02:46:40.003Z,13.50
2022-11-07T02:49:09.197Z,13.40
2022-11-07T02:51:35.881Z,13.50
2022-11-07T02:54:05.270Z,13.50
2022-11-07T02:56:35.998Z,13.50
2022-11-07T02:59:02.655Z,13.50
2022-11-07T03:01:31.551Z,13.50
2022-11-07T03:03:58.378Z,13.60
2022-11-07T03:06:27.063Z,13.60
2022-11-07T03:08:53.687Z,13.60
2022-11-07T03:11:22.601Z,13.60
2022-11-07T03:13:50.420Z,13.60
2022-11-07T03:16:20.516Z,13.60
2022-11-07T03:18:47.183Z,13.60
2022-11-07T03:21:16.399Z,13.60
2022-11-07T03:23:43.063Z,13.60
2022-11-07T03:26:09.780Z,13.60
2022-11-07T03:28:39.659Z,13.60
2022-11-07T03:31:06.336Z,13.60
2022-11-07T03:33:33.068Z,13.60
2022-11-07T03:35:59.797Z,13.60
2022-11-07T03:38:26.400Z,13.60
2022-11-07T03:40:55.487Z,13.60
2022-11-07T03:43:22.131Z,13.60
2022-11-07T03:45:51.091Z,13.60
2022-11-07T03:48:17.687Z,13.60
2022-11-07T03:50:44.311Z,13.60
2022-11-07T03:53:22.185Z,13.60
2022-11-07T03:55:58.097Z,13.60
2022-11-07T03:58:27.561Z,13.60
2022-11-07T04:00:57.004Z,13.60
2022-11-07T04:03:27.993Z,13.60
2022-11-07T04:05:57.109Z,13.60
2022-11-07T04:08:27.224Z,13.60
2022-11-07T04:10:56.065Z,13.60
2022-11-07T04:13:41.610Z,13.60
2022-11-07T04:16:30.040Z,13.60
2022-11-07T04:18:57.527Z,13.70
2022-11-07T04:21:28.330Z,13.70
2022-11-07T04:23:57.166Z,13.60
2022-11-07T04:26:59.194Z,13.60
2022-11-07T04:29:27.753Z,13.60
2022-11-07T04:31:54.596Z,13.60
2022-11-07T04:34:21.170Z,13.60
2022-11-07T04:36:50.751Z,13.60
2022-11-07T04:39:25.406Z,13.60
2022-11-07T04:41:54.346Z,13.60
2022-11-07T04:44:20.916Z,13.60
2022-11-07T04:46:47.547Z,13.60
2022-11-07T04:49:20.583Z,13.60
2022-11-07T04:51:47.169Z,13.60
2022-11-07T04:54:14.806Z,13.60
2022-11-07T04:56:47.313Z,13.60
2022-11-07T04:59:13.923Z,13.60
2022-11-07T05:01:43.083Z,13.60
2022-11-07T05:04:10.645Z,13.60
2022-11-07T05:06:40.544Z,13.60
2022-11-07T05:09:10.390Z,13.60
2022-11-07T05:11:40.730Z,13.60
2022-11-07T05:14:08.388Z,13.60
2022-11-07T05:16:35.717Z,13.70
2022-11-07T05:19:02.481Z,13.60
2022-11-07T05:21:29.192Z,13.70
2022-11-07T05:23:59.588Z,13.70
2022-11-07T05:26:28.283Z,13.80
2022-11-07T05:29:02.424Z,13.80
2022-11-07T05:31:34.326Z,13.80
2022-11-07T05:34:03.452Z,13.90
2022-11-07T05:36:30.048Z,13.90
2022-11-07T05:38:58.913Z,13.90
2022-11-07T05:41:27.742Z,14.00
2022-11-07T05:43:57.180Z,14.00
2022-11-07T05:46:23.807Z,14.10
2022-11-07T05:48:52.713Z,14.10
2022-11-07T05:51:27.361Z,14.20
2022-11-07T05:53:53.988Z,14.20
2022-11-07T05:56:24.775Z,14.20
2022-11-07T05:58:53.420Z,14.30
2022-11-07T06:01:27.481Z,14.30
2022-11-07T06:03:57.907Z,14.30
2022-11-07T06:06:34.577Z,14.30
2022-11-07T06:09:03.090Z,14.30
2022-11-07T06:11:31.440Z,14.40
2022-11-07T06:13:59.468Z,14.40
2022-11-07T06:16:31.020Z,14.40
2022-11-07T06:18:57.609Z,14.40
2022-11-07T06:21:25.467Z,14.50
2022-11-07T06:23:53.890Z,14.50
2022-11-07T06:26:20.800Z,14.60
2022-11-07T06:28:50.486Z,14.50
2022-11-07T06:31:17.124Z,14.50
2022-11-07T06:33:47.271Z,14.60
2022-11-07T06:36:16.707Z,14.60
2022-11-07T06:38:50.072Z,14.60
2022-11-07T06:41:16.679Z,14.60
2022-11-07T06:43:45.900Z,14.60
2022-11-07T06:46:15.174Z,14.60
2022-11-07T06:48:41.839Z,14.60
2022-11-07T06:51:11.700Z,14.70
2022-11-07T06:53:39.111Z,14.60
2022-11-07T06:56:09.113Z,14.70
2022-11-07T06:58:40.085Z,14.70
2022-11-07T07:01:14.062Z,14.70
2022-11-07T07:03:43.677Z,14.70
2022-11-07T07:06:15.948Z,14.70
2022-11-07T07:08:52.584Z,14.80
2022-11-07T07:11:19.209Z,14.80
2022-11-07T07:13:46.005Z,14.80
2022-11-07T07:16:15.833Z,14.80
2022-11-07T07:18:42.441Z,14.80
2022-11-07T07:21:11.308Z,14.90
2022-11-07T07:23:47.868Z,14.80
2022-11-07T07:26:15.944Z,14.90
2022-11-07T07:28:43.397Z,14.90
2022-11-07T07:31:18.160Z,15.00
2022-11-07T07:33:50.167Z,15.00
2022-11-07T07:36:20.746Z,15.00
2022-11-07T07:38:53.459Z,15.00
2022-11-07T07:41:20.539Z,15.10
2022-11-07T07:43:50.013Z,15.20
2022-11-07T07:46:28.591Z,15.20
2022-11-07T07:48:55.213Z,15.20
2022-11-07T07:51:27.063Z,15.30
2022-11-07T07:53:54.913Z,15.30
2022-11-07T07:56:22.167Z,15.40
2022-11-07T07:58:48.785Z,15.40
2022-11-07T08:01:17.923Z,15.40
2022-11-07T08:04:00.831Z,15.50
2022-11-07T08:06:32.344Z,15.50
2022-11-07T08:08:58.976Z,15.60
2022-11-07T08:11:25.617Z,15.60
2022-11-07T08:14:01.483Z,15.70
2022-11-07T08:16:29.582Z,15.70
2022-11-07T08:19:00.028Z,15.80
2022-11-07T08:21:28.764Z,15.80
2022-11-07T08:23:56.227Z,15.90
2022-11-07T08:26:24.090Z,15.90
2022-11-07T08:28:56.439Z,16.00
2022-11-07T08:31:25.242Z,16.00
2022-11-07T08:33:51.900Z,16.10
2022-11-07T08:36:23.220Z,16.10
2022-11-07T08:38:52.556Z,16.10
2022-11-07T08:41:22.385Z,16.20
2022-11-07T08:43:49.374Z,16.20
2022-11-07T08:46:18.379Z,16.30
2022-11-07T08:48:47.124Z,16.30
2022-11-07T08:51:16.606Z,16.30
2022-11-07T08:53:43.242Z,16.40
2022-11-07T08:56:10.404Z,16.40
2022-11-07T08:58:37.416Z,16.40
2022-11-07T09:01:09.076Z,16.40
2022-11-07T09:03:45.933Z,16.50
2022-11-07T09:06:14.540Z,16.50
2022-11-07T09:08:41.268Z,16.50
2022-11-07T09:11:11.178Z,16.50
2022-11-07T09:13:42.347Z,16.50
2022-11-07T09:16:11.377Z,16.50
2022-11-07T09:18:42.451Z,16.50
2022-11-07T09:21:20.919Z,16.40
2022-11-07T09:23:53.934Z,16.40
2022-11-07T09:26:22.061Z,16.40
2022-11-07T09:28:52.986Z,16.40
2022-11-07T09:31:23.518Z,16.40
2022-11-07T09:33:52.255Z,16.40
2022-11-07T09:36:18.922Z,16.40
2022-11-07T09:38:45.546Z,16.30
2022-11-07T09:41:40.882Z,16.30
2022-11-07T09:44:32.379Z,16.30
2022-11-07T09:47:19.037Z,16.30
2022-11-07T09:50:03.897Z,16.30
2022-11-07T09:52:54.931Z,16.30
2022-11-07T09:55:37.100Z,16.30
2022-11-07T09:58:14.933Z,16.30
2022-11-07T10:00:45.875Z,16.30
2022-11-07T10:03:12.985Z,16.30
2022-11-07T10:06:11.858Z,16.20
2022-11-07T10:08:48.749Z,16.30
2022-11-07T10:11:35.812Z,16.30
2022-11-07T10:14:33.019Z,16.30
2022-11-07T10:17:08.931Z,16.30
2022-11-07T10:20:03.068Z,16.30
2022-11-07T10:23:10.498Z,16.40
2022-11-07T10:25:58.001Z,16.40
2022-11-07T10:28:35.376Z,16.40
2022-11-07T10:31:06.889Z,16.50
2022-11-07T10:33:36.495Z,16.50
2022-11-07T10:36:18.567Z,16.50
2022-11-07T10:38:47.685Z,16.60
2022-11-07T10:41:19.552Z,16.60
2022-11-07T10:44:10.303Z,16.70
2022-11-07T10:46:43.297Z,16.80
2022-11-07T10:49:30.744Z,16.80
2022-11-07T10:52:11.864Z,16.90
2022-11-07T10:54:41.404Z,17.00
2022-11-07T10:57:19.964Z,17.00
2022-11-07T10:59:52.056Z,17.00
2022-11-07T11:02:41.024Z,17.00
2022-11-07T11:05:30.459Z,17.20
2022-11-07T11:08:24.595Z,17.10
2022-11-07T11:10:51.318Z,17.10
2022-11-07T11:13:32.978Z,17.10
2022-11-07T11:16:14.176Z,17.10
2022-11-07T11:18:56.046Z,17.10
2022-11-07T11:21:25.958Z,17.10
2022-11-07T11:23:58.044Z,17.10
2022-11-07T11:26:36.615Z,17.20
2022-11-07T11:29:11.579Z,17.20
2022-11-07T11:31:50.420Z,17.30
2022-11-07T11:34:50.916Z,17.30
2022-11-07T11:37:26.454Z,17.40
2022-11-07T11:40:02.330Z,17.50
2022-11-07T11:42:47.582Z,17.60
2022-11-07T11:45:26.468Z,17.70
2022-11-07T11:48:40.612Z,17.80
2022-11-07T11:51:15.063Z,17.90
2022-11-07T11:53:43.838Z,18.00
2022-11-07T11:56:28.292Z,18.00
2022-11-07T11:59:00.707Z,18.10
2022-11-07T12:01:47.418Z,18.10
2022-11-07T12:04:35.153Z,18.20
2022-11-07T12:07:34.468Z,18.30
2022-11-07T12:10:13.283Z,18.30
2022-11-07T12:13:11.457Z,18.40
2022-11-07T12:15:51.600Z,18.50
2022-11-07T12:18:24.396Z,18.60
2022-11-07T12:21:09.640Z,18.60
2022-11-07T12:24:02.501Z,18.60
2022-11-07T12:26:39.432Z,18.70
2022-11-07T12:29:22.631Z,18.70
2022-11-07T12:32:12.852Z,18.70
2022-11-07T12:35:00.583Z,18.70
2022-11-07T12:37:46.049Z,18.70
2022-11-07T12:40:21.683Z,18.70
2022-11-07T12:43:20.861Z,18.70
2022-11-07T12:46:10.473Z,18.60
2022-11-07T12:49:00.524Z,18.50
2022-11-07T12:52:05.186Z,18.50
2022-11-07T12:55:02.164Z,18.40
2022-11-07T12:57:36.665Z,18.40
2022-11-07T13:00:29.079Z,18.30
2022-11-07T13:03:26.656Z,18.30
2022-11-07T13:06:15.036Z,18.30
2022-11-07T13:09:13.276Z,18.30
2022-11-07T13:12:15.685Z,18.30
2022-11-07T13:14:45.048Z,18.30
2022-11-07T13:17:23.544Z,18.20
2022-11-07T13:20:06.421Z,18.30
2022-11-07T13:22:43.431Z,18.20
2022-11-07T13:25:19.107Z,18.20
2022-11-07T13:27:53.119Z,18.20
2022-11-07T13:30:21.343Z,18.20
2022-11-07T13:32:49.811Z,18.30
2022-11-07T13:35:35.858Z,18.30
2022-11-07T13:38:15.083Z,18.30
2022-11-07T13:41:01.231Z,18.30
2022-11-07T13:43:44.737Z,18.30
2022-11-07T13:46:46.355Z,18.40
2022-11-07T13:49:18.747Z,18.40
2022-11-07T13:51:49.288Z,18.40
2022-11-07T13:54:27.293Z,18.50
2022-11-07T13:57:04.808Z,18.50
2022-11-07T13:59:37.142Z,18.50
2022-11-07T14:02:04.211Z,18.50
2022-11-07T14:04:40.622Z,18.60
2022-11-07T14:07:19.432Z,18.50
2022-11-07T14:09:55.712Z,18.50
2022-11-07T14:12:22.627Z,18.50
2022-11-07T14:14:52.144Z,18.50
2022-11-07T14:17:20.276Z,18.40
2022-11-07T14:19:46.917Z,18.40
2022-11-07T14:22:30.367Z,18.40
2022-11-07T14:24:58.757Z,18.40
2022-11-07T14:27:25.329Z,18.50
2022-11-07T14:30:05.461Z,18.50
2022-11-07T14:32:32.398Z,18.50
2022-11-07T14:35:01.168Z,18.50
2022-11-07T14:37:33.762Z,18.60
2022-11-07T14:40:06.450Z,18.60
2022-11-07T14:42:33.224Z,18.60
2022-11-07T14:45:11.656Z,18.60
2022-11-07T14:47:38.560Z,18.60
2022-11-07T14:50:09.318Z,18.60
2022-11-07T14:52:44.789Z,18.60
2022-11-07T14:55:20.044Z,18.60
2022-11-07T14:57:49.507Z,18.60
2022-11-07T15:00:19.464Z,18.50
2022-11-07T15:02:51.367Z,18.50
2022-11-07T15:05:29.777Z,18.50
2022-11-07T15:07:58.598Z,18.50
2022-11-07T15:10:26.860Z,18.40
2022-11-07T15:12:57.217Z,18.40
2022-11-07T15:15:29.112Z,18.40
2022-11-07T15:18:00.813Z,18.40
2022-11-07T15:20:32.077Z,18.40
2022-11-07T15:23:29.324Z,18.40
2022-11-07T15:25:59.411Z,18.40
2022-11-07T15:28:32.291Z,18.30
2022-11-07T15:31:01.626Z,18.40
2022-11-07T15:33:32.615Z,18.30
2022-11-07T15:36:02.029Z,18.30
2022-11-07T15:38:29.285Z,18.20
2022-11-07T15:40:56.217Z,18.20
2022-11-07T15:43:25.570Z,18.10
2022-11-07T15:45:53.315Z,18.00
2022-11-07T15:48:22.718Z,18.00
2022-11-07T15:50:50.066Z,18.00
2022-11-07T15:53:26.309Z,17.90
2022-11-07T15:55:55.387Z,17.90
2022-11-07T15:58:32.321Z,17.90
2022-11-07T16:00:59.046Z,17.90
2022-11-07T16:03:32.983Z,17.80
2022-11-07T16:06:02.270Z,17.90
2022-11-07T16:08:29.819Z,17.80
2022-11-07T16:11:02.480Z,17.80
2022-11-07T16:13:29.132Z,17.70
2022-11-07T16:16:02.529Z,17.70
2022-11-07T16:18:42.085Z,17.70
2022-11-07T16:21:09.868Z,17.70
2022-11-07T16:23:37.114Z,17.70
2022-11-07T16:26:03.752Z,17.60
2022-11-07T16:28:40.341Z,17.60
2022-11-07T16:31:13.236Z,17.60
2022-11-07T16:33:42.646Z,17.60
2022-11-07T16:36:17.228Z,17.60
2022-11-07T16:38:43.868Z,17.60
2022-11-07T16:41:12.061Z,17.60
2022-11-07T16:43:38.913Z,17.50
2022-11-07T16:46:11.587Z,17.50
2022-11-07T16:48:40.896Z,17.50
2022-11-07T16:51:12.891Z,17.50
2022-11-07T16:53:39.488Z,17.50
2022-11-07T16:56:06.339Z,17.50
2022-11-07T16:58:34.638Z,17.40
2022-11-07T17:01:07.412Z,17.40
2022-11-07T17:03:34.380Z,17.50
2022-11-07T17:06:03.217Z,17.40
2022-11-07T17:08:43.660Z,17.40
2022-11-07T17:11:14.670Z,17.40
2022-11-07T17:13:41.718Z,17.40
2022-11-07T17:16:17.987Z,17.40
2022-11-07T17:18:46.850Z,17.40
2022-11-07T17:21:32.740Z,17.40
2022-11-07T17:24:01.262Z,17.40
2022-11-07T17:26:31.270Z,17.40
2022-11-07T17:29:01.977Z,17.40
2022-11-07T17:31:30.752Z,17.40
2022-11-07T17:33:57.427Z,17.40
2022-11-07T17:36:37.975Z,17.40
2022-11-07T17:39:11.497Z,17.40
2022-11-07T17:41:47.541Z,17.40
2022-11-07T17:44:17.800Z,17.40
2022-11-07T17:46:52.900Z,17.40
2022-11-07T17:49:22.150Z,17.40
2022-11-07T17:51:54.086Z,17.40
2022-11-07T17:54:24.145Z,17.40
2022-11-07T17:56:58.232Z,17.40
2022-11-07T17:59:24.833Z,17.50
2022-11-07T18:01:55.294Z,17.40
2022-11-07T18:04:24.512Z,17.40
2022-11-07T18:06:59.703Z,17.40
2022-11-07T18:09:34.655Z,17.40
2022-11-07T18:12:01.702Z,17.50
2022-11-07T18:14:30.477Z,17.50
2022-11-07T18:16:59.500Z,17.50
2022-11-07T18:19:26.146Z,17.40
2022-11-07T18:21:55.189Z,17.40
2022-11-07T18:24:24.423Z,17.40
2022-11-07T18:26:51.773Z,17.40
2022-11-07T18:29:21.124Z,17.40
2022-11-07T18:31:49.594Z,17.30
2022-11-07T18:34:21.052Z,17.30
2022-11-07T18:36:49.793Z,17.40
2022-11-07T18:39:21.736Z,17.30
2022-11-07T18:41:51.412Z,17.40
2022-11-07T18:44:25.439Z,17.40
2022-11-07T18:46:52.050Z,17.40
2022-11-07T18:49:19.431Z,17.40
2022-11-07T18:51:51.586Z,17.40
2022-11-07T18:54:22.003Z,17.40
2022-11-07T18:56:48.944Z,17.40
2022-11-07T18:59:20.420Z,17.40
2022-11-07T19:01:51.368Z,17.40
2022-11-07T19:04:20.280Z,17.40
2022-11-07T19:06:58.922Z,17.40
2022-11-07T19:09:35.712Z,17.40
2022-11-07T19:12:08.432Z,17.40
2022-11-07T19:14:37.416Z,17.40
2022-11-07T19:17:10.502Z,17.40
2022-11-07T19:19:43.087Z,17.40
2022-11-07T19:22:13.659Z,17.40
2022-11-07T19:24:41.477Z,17.40
2022-11-07T19:27:08.409Z,17.40
2022-11-07T19:29:39.224Z,17.30
2022-11-07T19:32:08.498Z,17.30
2022-11-07T19:34:35.152Z,17.30
2022-11-07T19:37:04.963Z,17.30
2022-11-07T19:39:37.133Z,17.30
2022-11-07T19:42:04.502Z,17.20
2022-11-07T19:44:34.420Z,17.20
2022-11-07T19:47:03.901Z,17.20
2022-11-07T19:49:30.505Z,17.10
2022-11-07T19:51:57.101Z,17.10
2022-11-07T19:54:24.994Z,17.10
2022-11-07T19:56:58.941Z,17.10
2022-11-07T19:59:32.556Z,17.10
2022-11-07T20:02:30.446Z,17.00
2022-11-07T20:04:48.162Z,17.00
2022-11-07T20:07:14.898Z,17.00
2022-11-07T20:09:42.119Z,16.90
2022-11-07T20:12:09.478Z,16.90
2022-11-07T20:14:39.887Z,17.00
2022-11-07T20:17:06.737Z,16.90
2022-11-07T20:19:37.905Z,16.90
2022-11-07T20:22:07.949Z,16.90
2022-11-07T20:24:38.217Z,16.80
2022-11-07T20:27:06.611Z,16.80
2022-11-07T20:29:33.779Z,16.80
2022-11-07T20:32:01.184Z,16.70
2022-11-07T20:34:27.783Z,16.70
2022-11-07T20:36:54.416Z,16.70
2022-11-07T20:39:21.118Z,16.70
2022-11-07T20:41:47.776Z,16.60
2022-11-07T20:44:30.040Z,16.60
2022-11-07T20:46:57.380Z,16.60
2022-11-07T20:49:23.989Z,16.60
2022-11-07T20:51:55.737Z,16.50
2022-11-07T20:54:25.172Z,16.50
2022-11-07T20:56:51.800Z,16.50
2022-11-07T20:59:18.423Z,16.50
2022-11-07T21:01:50.710Z,16.50
2022-11-07T21:04:19.751Z,16.50
2022-11-07T21:06:52.565Z,16.50
2022-11-07T21:09:20.994Z,16.50
2022-11-07T21:11:47.710Z,16.50
2022-11-07T21:14:14.500Z,16.50
2022-11-07T21:16:41.270Z,16.50
2022-11-07T21:19:14.819Z,16.50
2022-11-07T21:21:44.076Z,16.50
2022-11-07T21:24:10.707Z,16.60
2022-11-07T21:26:41.512Z,16.50
2022-11-07T21:29:11.070Z,16.50
2022-11-07T21:31:40.157Z,16.60
2022-11-07T21:34:09.111Z,16.50
2022-11-07T21:36:35.763Z,16.50
2022-11-07T21:39:07.234Z,16.60
2022-11-07T21:41:34.739Z,16.60
2022-11-07T21:44:06.039Z,16.50
2022-11-07T21:46:36.214Z,16.50
2022-11-07T21:49:06.574Z,16.50
2022-11-07T21:51:37.490Z,16.50
2022-11-07T21:54:15.664Z,16.40
2022-11-07T21:56:42.263Z,16.60
2022-11-07T21:59:11.916Z,16.40
2022-11-07T22:01:40.780Z,16.40
2022-11-07T22:04:13.607Z,16.40
2022-11-07T22:06:44.970Z,16.40
2022-11-07T22:09:16.872Z,16.30
2022-11-07T22:11:45.614Z,16.30
2022-11-07T22:14:19.234Z,16.30
2022-11-07T22:16:47.101Z,16.30
2022-11-07T22:19:13.974Z,16.20
2022-11-07T22:21:45.132Z,16.20
2022-11-07T22:24:18.372Z,16.20
2022-11-07T22:26:47.952Z,16.20
2022-11-07T22:29:14.578Z,16.10
2022-11-07T22:31:41.200Z,16.10
2022-11-07T22:34:13.089Z,16.10
2022-11-07T22:36:42.157Z,16.10
2022-11-07T22:39:09.269Z,16.00
2022-11-07T22:41:38.157Z,16.00
2022-11-07T22:44:04.883Z,16.00
2022-11-07T22:46:33.163Z,15.90
2022-11-07T22:49:00.355Z,15.90
2022-11-07T22:51:32.456Z,15.80
2022-11-07T22:54:05.602Z,15.80
2022-11-07T22:56:34.951Z,15.80
2022-11-07T22:59:02.468Z,15.70
2022-11-07T23:01:32.158Z,15.70
2022-11-07T23:04:04.356Z,15.70
2022-11-07T23:06:33.475Z,15.60
2022-11-07T23:09:00.763Z,15.60
2022-11-07T23:11:46.014Z,15.60
2022-11-07T23:14:15.992Z,15.50
2022-11-07T23:16:48.792Z,15.50
2022-11-07T23:19:20.654Z,15.50
2022-11-07T23:21:47.506Z,15.40
2022-11-07T23:24:14.222Z,15.40
2022-11-07T23:26:48.987Z,15.40
2022-11-07T23:29:21.186Z,15.40
2022-11-07T23:31:49.672Z,15.40
2022-11-07T23:34:18.715Z,15.40
2022-11-07T23:36:50.176Z,15.40
2022-11-07T23:39:19.312Z,15.40
2022-11-07T23:41:55.192Z,15.40
2022-11-07T23:44:24.341Z,15.50
2022-11-07T23:47:14.200Z,15.50
2022-11-07T23:49:59.859Z,15.50
2022-11-07T23:52:26.453Z,15.60
2022-11-07T23:55:11.698Z,15.60
2022-11-07T23:57:58.295Z,15.60
